Time;durP1;ratioP1;P1;durP2;ratioP2;P2;SDS_P1;SDS_P2;PMS_P1;PMS_P2;Temp;Humidity;BMP_temperature;BMP_pressure;BME280_temperature;BME280_humidity;BME280_pressure;Samples;Min_cycle;Max_cycle;Signal;HPM_P1;HPM_P2
2021/09/03 00:01:21;;;;;;;7.00;3.28;;;17.70;98.50;;;;;;5153687;27;20113;-72
2021/09/03 00:03:47;;;;;;;5.03;2.83;;;17.80;98.50;;;;;;5154265;27;20430;-72
2021/09/03 00:06:13;;;;;;;6.25;3.63;;;17.80;98.50;;;;;;5142713;27;20047;-72
2021/09/03 00:08:39;;;;;;;6.40;3.15;;;17.80;98.60;;;;;;5141725;27;20062;-72
2021/09/03 00:11:04;;;;;;;5.40;2.92;;;17.70;98.70;;;;;;5153690;27;20038;-72
2021/09/03 00:13:30;;;;;;;4.95;2.92;;;17.80;98.40;;;;;;5154238;27;20019;-72
2021/09/03 00:15:56;;;;;;;7.22;3.10;;;17.70;98.60;;;;;;5153374;27;20030;-72
2021/09/03 00:18:22;;;;;;;6.40;2.80;;;17.50;98.90;;;;;;5154324;27;20529;-72
2021/09/03 00:20:48;;;;;;;5.78;3.08;;;17.30;99.00;;;;;;5148162;27;20035;-73
2021/09/03 00:23:13;;;;;;;6.68;3.47;;;17.40;99.10;;;;;;5153128;27;20048;-73
2021/09/03 00:25:39;;;;;;;7.55;3.75;;;17.30;99.20;;;;;;5140435;27;20054;-73
2021/09/03 00:28:05;;;;;;;5.05;3.17;;;17.30;99.00;;;;;;5148623;27;20082;-72
2021/09/03 00:30:31;;;;;;;5.47;3.22;;;17.20;99.20;;;;;;5146427;27;20114;-72
2021/09/03 00:32:57;;;;;;;5.28;3.13;;;17.20;98.80;;;;;;5153256;27;20031;-72
2021/09/03 00:35:22;;;;;;;5.78;3.25;;;17.00;99.50;;;;;;5144574;27;20031;-72
2021/09/03 00:37:48;;;;;;;5.63;2.97;;;17.10;99.30;;;;;;5151127;27;20480;-72
2021/09/03 00:40:14;;;;;;;4.20;2.33;;;17.20;98.80;;;;;;5153074;27;20023;-72
2021/09/03 00:42:40;;;;;;;7.72;3.30;;;17.30;98.30;;;;;;5140963;27;20505;-72
2021/09/03 00:45:06;;;;;;;5.78;2.58;;;17.30;98.10;;;;;;5152734;27;20067;-72
2021/09/03 00:47:32;;;;;;;7.65;2.90;;;17.30;97.90;;;;;;5146957;27;20069;-72
2021/09/03 00:49:58;;;;;;;5.20;3.00;;;17.50;97.40;;;;;;5136903;27;20070;-72
2021/09/03 00:52:25;;;;;;;5.00;3.10;;;17.40;97.50;;;;;;5153203;27;20027;-73
2021/09/03 00:54:53;;;;;;;5.45;2.75;;;17.50;97.30;;;;;;5152315;27;20097;-73
2021/09/03 00:57:19;;;;;;;6.07;2.88;;;17.50;97.20;;;;;;5153552;27;20022;-72
2021/09/03 00:59:45;;;;;;;7.13;2.83;;;17.50;97.30;;;;;;5150505;27;20442;-72
2021/09/03 01:02:10;;;;;;;6.50;2.78;;;17.30;97.50;;;;;;5140325;27;20085;-72
2021/09/03 01:04:36;;;;;;;6.97;2.72;;;17.20;97.70;;;;;;5152332;27;20129;-73
2021/09/03 01:07:02;;;;;;;6.60;3.05;;;17.20;97.70;;;;;;5152221;27;20094;-72
2021/09/03 01:09:27;;;;;;;5.50;2.63;;;17.20;97.80;;;;;;5152890;27;20027;-72
2021/09/03 01:11:53;;;;;;;6.03;2.72;;;17.20;97.60;;;;;;5151473;27;20023;-72
2021/09/03 01:14:19;;;;;;;6.28;2.80;;;17.20;97.60;;;;;;5153287;27;20389;-72
2021/09/03 01:16:45;;;;;;;5.85;2.65;;;17.20;97.70;;;;;;5152516;27;20034;-72
2021/09/03 01:19:10;;;;;;;5.53;2.70;;;17.20;97.80;;;;;;5152953;27;20085;-72
2021/09/03 01:21:36;;;;;;;5.13;3.05;;;17.20;97.80;;;;;;5150337;27;20058;-72
2021/09/03 01:24:03;;;;;;;4.45;2.70;;;17.10;97.80;;;;;;5151797;27;20042;-72
2021/09/03 01:26:28;;;;;;;7.50;2.88;;;17.10;97.80;;;;;;5152043;27;20066;-72
2021/09/03 01:28:54;;;;;;;6.25;3.05;;;17.00;97.90;;;;;;5152823;27;20050;-72
2021/09/03 01:31:19;;;;;;;5.90;2.67;;;17.00;97.90;;;;;;5148231;27;20030;-72
2021/09/03 01:33:47;;;;;;;6.82;3.38;;;17.00;97.80;;;;;;5143714;27;20031;-72
2021/09/03 01:36:13;;;;;;;5.53;3.30;;;17.00;97.80;;;;;;5131630;27;20018;-73
2021/09/03 01:38:39;;;;;;;7.55;3.30;;;17.00;98.00;;;;;;5139439;27;20035;-72
2021/09/03 01:41:04;;;;;;;6.03;2.58;;;17.10;97.90;;;;;;5138986;27;20038;-72
2021/09/03 01:43:30;;;;;;;6.15;3.00;;;17.10;97.70;;;;;;5150915;27;20500;-72
2021/09/03 01:45:56;;;;;;;6.55;3.92;;;17.10;97.70;;;;;;5152076;27;20034;-72
2021/09/03 01:48:21;;;;;;;6.32;3.05;;;17.10;97.90;;;;;;5151679;27;20115;-72
2021/09/03 01:50:47;;;;;;;6.53;2.80;;;17.00;98.10;;;;;;5152025;27;20042;-72
2021/09/03 01:53:13;;;;;;;8.45;3.08;;;16.90;98.30;;;;;;5151765;27;20113;-73
2021/09/03 01:55:38;;;;;;;4.88;2.83;;;16.90;98.20;;;;;;5149162;27;20026;-72
2021/09/03 01:58:04;;;;;;;5.60;3.10;;;16.90;98.20;;;;;;5143090;27;20096;-72
2021/09/03 02:00:30;;;;;;;6.05;3.15;;;16.90;98.20;;;;;;5141988;27;20065;-72
2021/09/03 02:02:55;;;;;;;5.18;2.95;;;16.90;98.50;;;;;;5151811;27;20485;-72
2021/09/03 02:05:21;;;;;;;7.63;3.38;;;16.80;98.60;;;;;;5150911;27;20385;-72
2021/09/03 02:07:47;;;;;;;6.15;3.38;;;16.70;98.40;;;;;;5133293;27;20440;-73
2021/09/03 02:10:13;;;;;;;5.78;3.08;;;16.70;98.30;;;;;;5139472;27;20042;-72
2021/09/03 02:12:39;;;;;;;4.90;2.85;;;16.80;98.20;;;;;;5159107;27;20058;-72
2021/09/03 02:15:06;;;;;;;6.05;3.25;;;16.70;98.40;;;;;;5152180;27;20046;-72
2021/09/03 02:17:32;;;;;;;4.28;2.40;;;16.60;98.80;;;;;;5138568;27;20027;-72
2021/09/03 02:19:57;;;;;;;6.20;3.25;;;16.20;99.60;;;;;;5143260;27;20046;-73
2021/09/03 02:22:23;;;;;;;7.38;3.38;;;16.30;99.40;;;;;;5157869;27;20460;-72
2021/09/03 02:24:49;;;;;;;7.72;3.30;;;16.20;99.60;;;;;;5157492;27;20484;-72
2021/09/03 02:27:14;;;;;;;7.45;3.08;;;16.00;99.90;;;;;;5158871;27;20422;-72
2021/09/03 02:29:40;;;;;;;6.72;3.05;;;15.90;99.90;;;;;;5157271;27;20480;-72
2021/09/03 02:32:07;;;;;;;6.70;3.08;;;16.10;99.80;;;;;;5139426;27;20027;-72
2021/09/03 02:34:32;;;;;;;5.53;3.20;;;16.20;99.60;;;;;;5146792;27;20775;-72
2021/09/03 02:36:58;;;;;;;6.85;3.55;;;16.10;99.70;;;;;;5158818;27;20030;-72
2021/09/03 02:39:24;;;;;;;5.88;2.90;;;16.00;99.90;;;;;;5157860;27;20038;-72
2021/09/03 02:41:49;;;;;;;7.15;3.60;;;16.10;99.80;;;;;;5158907;27;20484;-72
2021/09/03 02:44:16;;;;;;;4.43;2.55;;;16.10;99.40;;;;;;5157774;27;20031;-72
2021/09/03 02:46:42;;;;;;;4.68;2.80;;;16.20;99.00;;;;;;5158846;27;20034;-72
2021/09/03 02:49:08;;;;;;;4.95;3.15;;;16.20;98.60;;;;;;5143363;27;20109;-72
2021/09/03 02:51:33;;;;;;;4.40;2.28;;;16.30;98.10;;;;;;5148477;27;20041;-72
2021/09/03 02:53:59;;;;;;;5.57;2.92;;;16.40;98.10;;;;;;5158893;27;20038;-72
2021/09/03 02:56:25;;;;;;;5.18;2.88;;;16.30;97.60;;;;;;5158028;27;20023;-72
2021/09/03 02:58:50;;;;;;;4.43;2.47;;;16.20;97.60;;;;;;5158520;27;20033;-72
2021/09/03 03:01:16;;;;;;;9.68;3.38;;;16.10;97.80;;;;;;5157714;27;20109;-72
2021/09/03 03:03:42;;;;;;;4.25;2.60;;;16.20;98.10;;;;;;5143788;27;20030;-72
2021/09/03 03:06:07;;;;;;;5.15;2.90;;;16.10;97.90;;;;;;5130548;27;20050;-73
2021/09/03 03:08:33;;;;;;;5.22;3.20;;;16.00;98.10;;;;;;5131583;27;20035;-73
2021/09/03 03:10:59;;;;;;;5.72;2.35;;;16.00;98.00;;;;;;5130910;27;20718;-72
2021/09/03 03:13:28;;;;;;;5.85;3.20;;;16.00;98.00;;;;;;5139880;27;20444;-73
2021/09/03 03:15:54;;;;;;;7.10;3.08;;;16.10;98.10;;;;;;5150140;27;20033;-72
2021/09/03 03:18:20;;;;;;;8.32;3.40;;;16.10;98.20;;;;;;5150654;27;20035;-73
2021/09/03 03:20:47;;;;;;;8.35;3.20;;;16.10;98.40;;;;;;5151274;27;20035;-73
2021/09/03 03:23:13;;;;;;;6.68;2.95;;;16.10;98.40;;;;;;5139991;27;20542;-72
2021/09/03 03:25:40;;;;;;;5.43;2.95;;;16.10;98.50;;;;;;5143294;27;20030;-72
2021/09/03 03:28:07;;;;;;;5.53;3.17;;;16.20;98.30;;;;;;5145848;27;20041;-73
2021/09/03 03:30:33;;;;;;;5.25;3.38;;;16.10;98.50;;;;;;5127027;27;20027;-73
2021/09/03 03:32:59;;;;;;;4.80;2.78;;;16.10;98.70;;;;;;5140224;27;20087;-72
2021/09/03 03:35:24;;;;;;;5.40;3.03;;;16.00;99.10;;;;;;5146975;27;20022;-72
2021/09/03 03:37:50;;;;;;;5.20;2.88;;;16.00;99.10;;;;;;5146041;27;20031;-72
2021/09/03 03:40:17;;;;;;;6.30;2.80;;;16.00;99.00;;;;;;5146947;27;20031;-73
2021/09/03 03:42:43;;;;;;;5.60;3.10;;;16.00;99.20;;;;;;5127492;27;20055;-73
2021/09/03 03:45:10;;;;;;;8.57;3.80;;;16.00;99.20;;;;;;5142957;27;20026;-73
2021/09/03 03:47:36;;;;;;;6.38;3.20;;;15.90;99.30;;;;;;5146969;27;20038;-73
2021/09/03 03:50:01;;;;;;;6.85;3.20;;;15.90;99.20;;;;;;5145791;27;20027;-72
2021/09/03 03:52:27;;;;;;;8.23;2.90;;;15.80;99.30;;;;;;5146628;27;20527;-73
2021/09/03 03:54:53;;;;;;;5.78;3.05;;;15.80;99.20;;;;;;5139926;27;20023;-72
2021/09/03 03:57:19;;;;;;;6.72;2.83;;;15.70;99.20;;;;;;5127894;27;20035;-72
2021/09/03 03:59:44;;;;;;;4.82;3.13;;;15.70;99.30;;;;;;5130146;27;20061;-73
2021/09/03 04:02:10;;;;;;;5.90;2.83;;;15.50;99.60;;;;;;5147301;27;20110;-73
2021/09/03 04:04:35;;;;;;;4.88;2.90;;;15.40;99.90;;;;;;5145874;27;20462;-73
2021/09/03 04:07:01;;;;;;;5.57;3.50;;;15.40;99.90;;;;;;5146446;27;20042;-73
2021/09/03 04:09:27;;;;;;;6.63;3.20;;;15.30;99.90;;;;;;5146530;27;20030;-72
2021/09/03 04:11:53;;;;;;;5.38;3.13;;;15.20;99.90;;;;;;5145208;27;20071;-72
2021/09/03 04:14:19;;;;;;;5.57;3.42;;;15.20;99.90;;;;;;5146685;27;20087;-72
2021/09/03 04:16:46;;;;;;;7.95;3.28;;;15.30;99.90;;;;;;5145523;27;20050;-72
2021/09/03 04:19:12;;;;;;;7.88;3.45;;;15.30;99.90;;;;;;5146493;27;20115;-73
2021/09/03 04:21:38;;;;;;;6.38;2.97;;;15.30;99.90;;;;;;5145569;27;20053;-73
2021/09/03 04:24:04;;;;;;;5.95;3.13;;;15.40;99.90;;;;;;5146362;27;20033;-73
2021/09/03 04:26:30;;;;;;;6.38;2.92;;;15.40;99.70;;;;;;5134451;27;20023;-73
2021/09/03 04:28:56;;;;;;;6.13;3.13;;;15.60;99.20;;;;;;5146617;27;20033;-72
2021/09/03 04:31:22;;;;;;;5.93;3.22;;;15.70;99.30;;;;;;5144728;27;20057;-72
2021/09/03 04:33:47;;;;;;;7.07;3.30;;;15.60;99.00;;;;;;5146657;27;20400;-73
2021/09/03 04:36:14;;;;;;;4.90;2.50;;;15.60;98.70;;;;;;5145450;27;20030;-73
2021/09/03 04:38:39;;;;;;;7.72;3.20;;;15.60;98.50;;;;;;5146050;27;20082;-72
2021/09/03 04:41:05;;;;;;;5.18;2.83;;;15.60;98.50;;;;;;5144666;27;20484;-72
2021/09/03 04:43:31;;;;;;;5.45;2.80;;;15.70;98.70;;;;;;5146079;27;20094;-72
2021/09/03 04:45:56;;;;;;;5.40;3.10;;;15.70;98.70;;;;;;5145373;27;20452;-73
2021/09/03 04:48:22;;;;;;;8.15;3.10;;;15.70;98.50;;;;;;5145937;27;20159;-73
2021/09/03 04:50:48;;;;;;;4.50;2.65;;;15.80;98.50;;;;;;5141855;27;20388;-73
2021/09/03 04:53:14;;;;;;;6.13;3.38;;;15.80;98.50;;;;;;5145244;27;20159;-72
2021/09/03 04:55:39;;;;;;;6.90;3.40;;;15.80;98.70;;;;;;5145225;27;20058;-73
2021/09/03 04:58:05;;;;;;;9.63;4.28;;;15.80;98.70;;;;;;5145827;27;20126;-73
2021/09/03 05:00:31;;;;;;;9.15;3.58;;;15.80;98.70;;;;;;5134808;27;20038;-73
2021/09/03 05:02:56;;;;;;;6.38;3.00;;;15.80;98.80;;;;;;5137821;27;20074;-73
2021/09/03 05:05:22;;;;;;;6.35;3.10;;;15.70;99.10;;;;;;5145274;27;20374;-72
2021/09/03 05:07:48;;;;;;;7.80;3.75;;;15.70;99.20;;;;;;5145465;27;20102;-73
2021/09/03 05:10:14;;;;;;;6.20;3.13;;;15.70;99.20;;;;;;5143911;27;20468;-73
2021/09/03 05:12:40;;;;;;;6.18;3.20;;;15.70;99.10;;;;;;5145534;27;20358;-73
2021/09/03 05:15:17;;;;;;;6.97;3.28;;;15.70;99.10;;;;;;5144164;27;20054;-73
2021/09/03 05:17:48;;;;;;;5.97;3.10;;;15.70;99.10;;;;;;5142014;27;20139;-73
2021/09/03 05:20:13;;;;;;;5.85;3.25;;;15.70;99.20;;;;;;5124965;27;20023;-73
2021/09/03 05:22:39;;;;;;;8.10;3.10;;;15.60;99.50;;;;;;5129367;27;20038;-73
2021/09/03 05:25:08;;;;;;;4.45;2.88;;;15.60;99.60;;;;;;5131761;27;20110;-72
2021/09/03 05:27:34;;;;;;;10.15;3.35;;;15.60;99.70;;;;;;5125455;27;20596;-73
2021/09/03 05:30:00;;;;;;;6.70;3.50;;;15.60;99.50;;;;;;5145167;27;20106;-72
2021/09/03 05:32:25;;;;;;;6.85;3.17;;;15.70;99.60;;;;;;5143763;27;20528;-72
2021/09/03 05:34:51;;;;;;;7.28;3.30;;;15.70;99.70;;;;;;5144986;27;20565;-72
2021/09/03 05:37:17;;;;;;;5.97;3.45;;;15.80;99.40;;;;;;5143972;27;20377;-73
2021/09/03 05:39:42;;;;;;;7.43;3.42;;;15.70;99.70;;;;;;5144866;27;20037;-73
2021/09/03 05:42:08;;;;;;;5.97;3.55;;;15.60;99.90;;;;;;5146300;27;20030;-72
2021/09/03 05:44:34;;;;;;;5.65;3.20;;;15.40;99.90;;;;;;5148004;27;20668;-71
2021/09/03 05:46:59;;;;;;;5.55;2.95;;;15.30;99.90;;;;;;5145283;27;20390;-71
2021/09/03 05:49:25;;;;;;;6.10;3.50;;;15.40;99.90;;;;;;5133546;27;20031;-72
2021/09/03 05:51:51;;;;;;;6.88;3.60;;;15.40;99.90;;;;;;5136634;27;20749;-72
2021/09/03 05:54:18;;;;;;;6.43;3.28;;;15.60;99.90;;;;;;5143818;27;20093;-71
2021/09/03 05:56:43;;;;;;;5.88;3.10;;;15.60;99.90;;;;;;5144794;27;20019;-72
2021/09/03 05:59:09;;;;;;;7.72;2.90;;;15.60;99.90;;;;;;5144134;27;20106;-72
2021/09/03 06:01:35;;;;;;;7.22;3.60;;;15.50;99.90;;;;;;5144379;27;20031;-72
2021/09/03 06:04:02;;;;;;;10.35;3.95;;;15.60;99.90;;;;;;5144180;27;20027;-72
2021/09/03 06:06:28;;;;;;;6.28;3.78;;;15.70;99.90;;;;;;5145479;27;20113;-72
2021/09/03 06:08:53;;;;;;;7.78;3.78;;;15.60;99.90;;;;;;5133361;27;20122;-72
2021/09/03 06:11:29;;;;;;;6.60;3.65;;;15.60;99.90;;;;;;5126567;27;20023;-71
2021/09/03 06:13:56;;;;;;;6.43;3.40;;;15.60;99.90;;;;;;5138368;27;20038;-72
2021/09/03 06:16:24;;;;;;;7.28;3.70;;;15.60;99.90;;;;;;5144914;27;20022;-72
2021/09/03 06:18:50;;;;;;;5.53;3.60;;;15.70;99.90;;;;;;5132119;27;20084;-72
2021/09/03 06:21:17;;;;;;;7.28;3.58;;;15.70;99.90;;;;;;5143785;27;20034;-72
2021/09/03 06:23:43;;;;;;;7.60;3.67;;;15.70;99.90;;;;;;5144361;27;20381;-72
2021/09/03 06:26:09;;;;;;;6.20;3.47;;;15.80;99.90;;;;;;5144726;27;20030;-72
2021/09/03 06:28:36;;;;;;;7.25;3.75;;;15.80;99.90;;;;;;5143782;27;20038;-72
2021/09/03 06:31:03;;;;;;;7.18;4.03;;;15.80;99.90;;;;;;5144602;27;20051;-72
2021/09/03 06:33:29;;;;;;;5.75;3.42;;;15.90;99.90;;;;;;5144180;27;20031;-72
2021/09/03 06:35:55;;;;;;;7.53;3.17;;;15.90;99.90;;;;;;5141378;27;20029;-72
2021/09/03 06:38:21;;;;;;;5.45;3.40;;;15.90;99.90;;;;;;5125584;27;20026;-72
2021/09/03 06:40:47;;;;;;;6.82;3.63;;;15.90;99.90;;;;;;5136680;27;20058;-71
2021/09/03 06:43:13;;;;;;;9.70;4.03;;;15.90;99.90;;;;;;5144470;27;20399;-72
2021/09/03 06:45:38;;;;;;;6.28;3.35;;;16.00;99.90;;;;;;5144186;27;20449;-72
2021/09/03 06:48:05;;;;;;;7.25;3.80;;;16.20;99.90;;;;;;5146504;27;20065;-74
2021/09/03 06:50:30;;;;;;;7.00;3.90;;;17.30;99.90;;;;;;5140230;27;20100;-72
2021/09/03 06:52:56;;;;;;;5.10;3.30;;;19.60;97.60;;;;;;5140205;27;20087;-72
2021/09/03 06:55:22;;;;;;;6.80;3.38;;;20.30;95.80;;;;;;5123855;28;20080;-72
2021/09/03 06:57:48;;;;;;;6.45;3.20;;;21.00;94.60;;;;;;5135697;27;20046;-72
2021/09/03 07:00:14;;;;;;;6.30;3.20;;;22.40;92.80;;;;;;5135687;27;20023;-72
2021/09/03 07:02:40;;;;;;;6.47;3.50;;;23.50;91.50;;;;;;5132856;27;20811;-72
2021/09/03 07:05:05;;;;;;;5.88;3.88;;;24.70;90.20;;;;;;5138846;27;20043;-74
2021/09/03 07:07:31;;;;;;;7.15;4.07;;;24.40;90.20;;;;;;5133898;27;20976;-72
2021/09/03 07:09:57;;;;;;;9.85;3.95;;;24.30;90.20;;;;;;5138813;27;20034;-72
2021/09/03 07:12:23;;;;;;;5.68;3.10;;;24.60;90.00;;;;;;5146975;27;20510;-72
2021/09/03 07:14:50;;;;;;;5.93;3.28;;;25.30;88.70;;;;;;5134676;27;20102;-73
2021/09/03 07:17:16;;;;;;;9.15;3.70;;;25.50;87.80;;;;;;5144906;27;20046;-72
2021/09/03 07:19:42;;;;;;;11.32;3.72;;;24.70;88.60;;;;;;5145836;27;20069;-72
2021/09/03 07:22:07;;;;;;;6.53;3.58;;;25.40;88.30;;;;;;5147318;27;20117;-72
2021/09/03 07:24:33;;;;;;;6.32;3.45;;;24.40;89.50;;;;;;5147729;27;20027;-73
2021/09/03 07:26:59;;;;;;;6.32;3.03;;;21.70;92.70;;;;;;5146623;27;20038;-73
2021/09/03 07:29:25;;;;;;;6.95;3.47;;;19.90;94.90;;;;;;5148507;27;20022;-72
2021/09/03 07:31:51;;;;;;;7.30;3.83;;;19.00;96.30;;;;;;5146846;27;20067;-72
2021/09/03 07:34:17;;;;;;;5.53;3.40;;;18.50;97.40;;;;;;5147656;27;20073;-72
2021/09/03 07:36:42;;;;;;;10.30;4.90;;;18.20;97.90;;;;;;5147513;27;20548;-73
2021/09/03 07:39:08;;;;;;;5.93;3.58;;;18.30;98.50;;;;;;5148178;27;20102;-72
2021/09/03 07:41:34;;;;;;;8.15;3.85;;;18.30;98.40;;;;;;5142018;27;20434;-71
2021/09/03 07:43:59;;;;;;;9.52;4.00;;;18.20;98.90;;;;;;5146692;27;20094;-72
2021/09/03 07:46:25;;;;;;;6.25;3.78;;;18.20;98.90;;;;;;5127258;27;20793;-72
2021/09/03 07:48:51;;;;;;;6.80;4.30;;;18.30;99.40;;;;;;5130567;27;20094;-72
2021/09/03 07:51:16;;;;;;;6.43;4.05;;;18.30;99.50;;;;;;5147841;27;20030;-72
2021/09/03 07:53:43;;;;;;;6.60;3.50;;;18.30;99.50;;;;;;5146088;27;20033;-72
2021/09/03 07:56:09;;;;;;;6.57;3.80;;;18.40;99.70;;;;;;5124553;27;20402;-72
2021/09/03 07:58:35;;;;;;;11.88;3.88;;;18.50;99.40;;;;;;5138610;27;20083;-72
2021/09/03 08:01:02;;;;;;;6.72;4.15;;;18.40;99.60;;;;;;5144889;27;20027;-72
2021/09/03 08:03:28;;;;;;;7.07;4.78;;;18.50;99.70;;;;;;5144186;27;20127;-72
2021/09/03 08:05:54;;;;;;;7.57;4.78;;;18.40;99.70;;;;;;5110428;27;20154;-72
2021/09/03 08:08:20;;;;;;;9.80;4.40;;;18.50;99.60;;;;;;5122318;27;20058;-72
2021/09/03 08:10:46;;;;;;;6.93;3.47;;;18.70;99.50;;;;;;5109629;27;20028;-73
2021/09/03 08:13:12;;;;;;;6.63;3.90;;;18.70;99.20;;;;;;5119086;27;20038;-73
2021/09/03 08:15:39;;;;;;;7.03;3.97;;;18.70;99.00;;;;;;5105795;27;20030;-73
2021/09/03 08:18:05;;;;;;;6.97;3.67;;;18.90;99.10;;;;;;5122837;27;20374;-73
2021/09/03 08:20:32;;;;;;;7.50;3.80;;;18.90;99.30;;;;;;5126507;27;20030;-73
2021/09/03 08:22:59;;;;;;;7.40;4.40;;;19.10;99.10;;;;;;5106752;27;20054;-73
2021/09/03 08:25:25;;;;;;;7.55;4.05;;;19.00;98.80;;;;;;5118343;27;20030;-73
2021/09/03 08:27:51;;;;;;;6.25;4.13;;;19.00;98.50;;;;;;5126156;27;20031;-73
2021/09/03 08:30:18;;;;;;;6.70;4.05;;;19.00;98.40;;;;;;5125500;27;20357;-73
2021/09/03 08:32:45;;;;;;;6.65;3.85;;;19.00;98.30;;;;;;5124989;27;20109;-73
2021/09/03 08:35:11;;;;;;;6.60;3.88;;;19.10;98.60;;;;;;5124220;27;20034;-72
2021/09/03 08:37:37;;;;;;;5.25;3.22;;;19.10;98.10;;;;;;5125634;27;20107;-72
2021/09/03 08:40:03;;;;;;;7.47;3.72;;;19.30;98.50;;;;;;5124080;27;20641;-73
2021/09/03 08:42:30;;;;;;;8.60;4.63;;;19.30;97.80;;;;;;5124038;27;20074;-72
2021/09/03 08:44:56;;;;;;;6.93;3.58;;;19.40;97.30;;;;;;5125837;27;20915;-72
2021/09/03 08:47:22;;;;;;;9.15;4.25;;;19.30;97.40;;;;;;5125564;27;20043;-72
2021/09/03 08:49:50;;;;;;;11.50;4.28;;;19.50;97.60;;;;;;5125645;27;20019;-71
2021/09/03 08:52:17;;;;;;;5.38;3.60;;;20.00;97.40;;;;;;5125394;27;20019;-72
